sensor_id;sensor_type;location;lat;lon;timestamp;temperature;humidity
20155;DHT22;10238;49.556;10.956;2022-08-14T00:00:42;17.90;99.90
20155;DHT22;10238;49.556;10.956;2022-08-14T00:03:19;17.90;99.90
20155;DHT22;10238;49.556;10.956;2022-08-14T00:05:57;17.80;99.90
20155;DHT22;10238;49.556;10.956;2022-08-14T00:08:40;17.80;99.90
20155;DHT22;10238;49.556;10.956;2022-08-14T00:11:12;17.80;99.90
20155;DHT22;10238;49.556;10.956;2022-08-14T00:13:43;17.70;99.90
20155;DHT22;10238;49.556;10.956;2022-08-14T00:16:19;17.70;99.90
20155;DHT22;10238;49.556;10.956;2022-08-14T00:19:10;17.60;99.90
20155;DHT22;10238;49.556;10.956;2022-08-14T00:21:48;17.60;99.90
20155;DHT22;10238;49.556;10.956;2022-08-14T00:24:19;17.60;99.90
20155;DHT22;10238;49.556;10.956;2022-08-14T00:26:57;17.50;99.90
20155;DHT22;10238;49.556;10.956;2022-08-14T00:29:31;17.50;99.90
20155;DHT22;10238;49.556;10.956;2022-08-14T00:32:09;17.40;99.90
20155;DHT22;10238;49.556;10.956;2022-08-14T00:35:04;17.40;99.90
20155;DHT22;10238;49.556;10.956;2022-08-14T00:37:39;17.40;99.90
20155;DHT22;10238;49.556;10.956;2022-08-14T00:40:12;17.30;99.90
20155;DHT22;10238;49.556;10.956;2022-08-14T00:43:01;17.30;99.90
20155;DHT22;10238;49.556;10.956;2022-08-14T00:45:31;17.20;99.90
20155;DHT22;10238;49.556;10.956;2022-08-14T00:48:00;17.20;99.90
20155;DHT22;10238;49.556;10.956;2022-08-14T00:50:30;17.20;99.90
20155;DHT22;10238;49.556;10.956;2022-08-14T00:53:04;17.10;99.90
20155;DHT22;10238;49.556;10.956;2022-08-14T00:55:37;17.10;99.90
20155;DHT22;10238;49.556;10.956;2022-08-14T00:58:09;17.10;99.90
20155;DHT22;10238;49.556;10.956;2022-08-14T01:01:01;17.10;99.90
20155;DHT22;10238;49.556;10.956;2022-08-14T01:03:33;17.00;99.90
20155;DHT22;10238;49.556;10.956;2022-08-14T01:06:12;17.00;99.90
20155;DHT22;10238;49.556;10.956;2022-08-14T01:08:45;17.00;99.90
20155;DHT22;10238;49.556;10.956;2022-08-14T01:11:24;16.90;99.90
20155;DHT22;10238;49.556;10.956;2022-08-14T01:14:03;16.90;99.90
20155;DHT22;10238;49.556;10.956;2022-08-14T01:16:52;16.90;99.90
20155;DHT22;10238;49.556;10.956;2022-08-14T01:19:24;16.90;99.90
20155;DHT22;10238;49.556;10.956;2022-08-14T01:22:18;16.80;99.90
20155;DHT22;10238;49.556;10.956;2022-08-14T01:25:03;16.80;99.90
20155;DHT22;10238;49.556;10.956;2022-08-14T01:27:34;16.80;99.90
20155;DHT22;10238;49.556;10.956;2022-08-14T01:30:24;16.70;99.90
20155;DHT22;10238;49.556;10.956;2022-08-14T01:32:56;16.70;99.90
20155;DHT22;10238;49.556;10.956;2022-08-14T01:35:45;16.70;99.90
20155;DHT22;10238;49.556;10.956;2022-08-14T01:38:53;16.60;99.90
20155;DHT22;10238;49.556;10.956;2022-08-14T01:41:48;16.60;99.90
20155;DHT22;10238;49.556;10.956;2022-08-14T01:44:45;16.60;99.90
20155;DHT22;10238;49.556;10.956;2022-08-14T01:47:41;16.50;99.90
20155;DHT22;10238;49.556;10.956;2022-08-14T01:50:31;16.50;99.90
20155;DHT22;10238;49.556;10.956;2022-08-14T01:53:21;16.40;99.90
20155;DHT22;10238;49.556;10.956;2022-08-14T01:55:58;16.40;99.90
20155;DHT22;10238;49.556;10.956;2022-08-14T01:58:30;16.40;99.90
20155;DHT22;10238;49.556;10.956;2022-08-14T02:00:59;16.40;99.90
20155;DHT22;10238;49.556;10.956;2022-08-14T02:03:39;16.40;99.90
20155;DHT22;10238;49.556;10.956;2022-08-14T02:06:16;16.40;99.90
20155;DHT22;10238;49.556;10.956;2022-08-14T02:08:59;16.30;99.90
20155;DHT22;10238;49.556;10.956;2022-08-14T02:11:47;16.30;99.90
20155;DHT22;10238;49.556;10.956;2022-08-14T02:14:21;16.30;99.90
20155;DHT22;10238;49.556;10.956;2022-08-14T02:16:59;16.20;99.90
20155;DHT22;10238;49.556;10.956;2022-08-14T02:19:30;16.20;99.90
20155;DHT22;10238;49.556;10.956;2022-08-14T02:22:02;16.10;99.90
20155;DHT22;10238;49.556;10.956;2022-08-14T02:24:36;16.10;99.90
20155;DHT22;10238;49.556;10.956;2022-08-14T02:27:15;16.10;99.90
20155;DHT22;10238;49.556;10.956;2022-08-14T02:30:07;16.10;99.90
20155;DHT22;10238;49.556;10.956;2022-08-14T02:32:40;16.10;99.90
20155;DHT22;10238;49.556;10.956;2022-08-14T02:35:09;16.00;99.90
20155;DHT22;10238;49.556;10.956;2022-08-14T02:37:45;16.00;99.90
20155;DHT22;10238;49.556;10.956;2022-08-14T02:40:17;16.00;99.90
20155;DHT22;10238;49.556;10.956;2022-08-14T02:43:00;15.90;99.90
20155;DHT22;10238;49.556;10.956;2022-08-14T02:45:31;15.90;99.90
20155;DHT22;10238;49.556;10.956;2022-08-14T02:48:12;15.90;99.90
20155;DHT22;10238;49.556;10.956;2022-08-14T02:51:05;15.90;99.90
20155;DHT22;10238;49.556;10.956;2022-08-14T02:53:38;15.80;99.90
20155;DHT22;10238;49.556;10.956;2022-08-14T02:56:11;15.80;99.90
20155;DHT22;10238;49.556;10.956;2022-08-14T02:59:06;15.80;99.90
20155;DHT22;10238;49.556;10.956;2022-08-14T03:01:37;15.80;99.90
20155;DHT22;10238;49.556;10.956;2022-08-14T03:04:16;15.70;99.90
20155;DHT22;10238;49.556;10.956;2022-08-14T03:06:47;15.70;99.90
20155;DHT22;10238;49.556;10.956;2022-08-14T03:09:35;15.70;99.90
20155;DHT22;10238;49.556;10.956;2022-08-14T03:12:25;15.60;99.90
20155;DHT22;10238;49.556;10.956;2022-08-14T03:15:01;15.60;99.90
20155;DHT22;10238;49.556;10.956;2022-08-14T03:17:43;15.60;99.90
20155;DHT22;10238;49.556;10.956;2022-08-14T03:20:25;15.60;99.90
20155;DHT22;10238;49.556;10.956;2022-08-14T03:22:56;15.50;99.90
20155;DHT22;10238;49.556;10.956;2022-08-14T03:25:31;15.50;99.90
20155;DHT22;10238;49.556;10.956;2022-08-14T03:28:05;15.50;99.90
20155;DHT22;10238;49.556;10.956;2022-08-14T03:30:57;15.50;99.90
20155;DHT22;10238;49.556;10.956;2022-08-14T03:33:28;15.40;99.90
20155;DHT22;10238;49.556;10.956;2022-08-14T03:36:08;15.40;99.90
20155;DHT22;10238;49.556;10.956;2022-08-14T03:39:03;15.40;99.90
20155;DHT22;10238;49.556;10.956;2022-08-14T03:41:48;15.40;99.90
20155;DHT22;10238;49.556;10.956;2022-08-14T03:44:18;15.30;99.90
20155;DHT22;10238;49.556;10.956;2022-08-14T03:47:08;15.30;99.90
20155;DHT22;10238;49.556;10.956;2022-08-14T03:49:42;15.30;99.90
20155;DHT22;10238;49.556;10.956;2022-08-14T03:52:17;15.30;99.90
20155;DHT22;10238;49.556;10.956;2022-08-14T03:55:09;15.20;99.90
20155;DHT22;10238;49.556;10.956;2022-08-14T03:57:40;15.20;99.90
20155;DHT22;10238;49.556;10.956;2022-08-14T04:00:12;15.20;99.90
20155;DHT22;10238;49.556;10.956;2022-08-14T04:03:05;15.20;99.90
20155;DHT22;10238;49.556;10.956;2022-08-14T04:05:36;15.20;99.90
20155;DHT22;10238;49.556;10.956;2022-08-14T04:08:15;15.20;99.90
20155;DHT22;10238;49.556;10.956;2022-08-14T04:10:58;15.20;99.90
20155;DHT22;10238;49.556;10.956;2022-08-14T04:13:30;15.20;99.90
20155;DHT22;10238;49.556;10.956;2022-08-14T04:16:02;15.20;99.90
20155;DHT22;10238;49.556;10.956;2022-08-14T04:18:41;15.20;99.90
20155;DHT22;10238;49.556;10.956;2022-08-14T04:21:13;15.20;99.90
20155;DHT22;10238;49.556;10.956;2022-08-14T04:23:44;15.20;99.90
20155;DHT22;10238;49.556;10.956;2022-08-14T04:26:25;15.20;99.90
20155;DHT22;10238;49.556;10.956;2022-08-14T04:29:09;15.20;99.90
20155;DHT22;10238;49.556;10.956;2022-08-14T04:31:42;15.20;99.90
20155;DHT22;10238;49.556;10.956;2022-08-14T04:34:34;15.20;99.90
20155;DHT22;10238;49.556;10.956;2022-08-14T04:37:08;15.20;99.90
20155;DHT22;10238;49.556;10.956;2022-08-14T04:39:57;15.20;99.90
20155;DHT22;10238;49.556;10.956;2022-08-14T04:42:45;15.20;99.90
20155;DHT22;10238;49.556;10.956;2022-08-14T04:45:32;15.20;99.90
20155;DHT22;10238;49.556;10.956;2022-08-14T04:48:07;15.20;99.90
20155;DHT22;10238;49.556;10.956;2022-08-14T04:50:42;15.20;99.90
20155;DHT22;10238;49.556;10.956;2022-08-14T04:53:22;15.20;99.90
20155;DHT22;10238;49.556;10.956;2022-08-14T04:56:02;15.30;99.90
20155;DHT22;10238;49.556;10.956;2022-08-14T04:58:37;15.30;99.90
20155;DHT22;10238;49.556;10.956;2022-08-14T05:01:11;15.30;99.90
20155;DHT22;10238;49.556;10.956;2022-08-14T05:03:46;15.30;99.90
20155;DHT22;10238;49.556;10.956;2022-08-14T05:06:18;15.30;99.90
20155;DHT22;10238;49.556;10.956;2022-08-14T05:09:06;15.30;99.90
20155;DHT22;10238;49.556;10.956;2022-08-14T05:11:41;15.40;99.90
20155;DHT22;10238;49.556;10.956;2022-08-14T05:14:10;15.40;99.90
20155;DHT22;10238;49.556;10.956;2022-08-14T05:16:59;15.50;99.90
20155;DHT22;10238;49.556;10.956;2022-08-14T05:19:29;15.50;99.90
20155;DHT22;10238;49.556;10.956;2022-08-14T05:22:03;15.60;99.90
20155;DHT22;10238;49.556;10.956;2022-08-14T05:24:44;15.60;99.90
20155;DHT22;10238;49.556;10.956;2022-08-14T05:27:18;15.60;99.90
20155;DHT22;10238;49.556;10.956;2022-08-14T05:29:50;15.70;99.90
20155;DHT22;10238;49.556;10.956;2022-08-14T05:32:24;15.70;99.90
20155;DHT22;10238;49.556;10.956;2022-08-14T05:34:56;15.80;99.90
20155;DHT22;10238;49.556;10.956;2022-08-14T05:37:27;15.90;99.90
20155;DHT22;10238;49.556;10.956;2022-08-14T05:39:58;16.00;99.90
20155;DHT22;10238;49.556;10.956;2022-08-14T05:42:29;16.00;99.90
20155;DHT22;10238;49.556;10.956;2022-08-14T05:45:02;16.10;99.90
20155;DHT22;10238;49.556;10.956;2022-08-14T05:47:40;16.20;99.90
20155;DHT22;10238;49.556;10.956;2022-08-14T05:50:11;16.20;99.90
20155;DHT22;10238;49.556;10.956;2022-08-14T05:52:48;16.40;99.90
20155;DHT22;10238;49.556;10.956;2022-08-14T05:55:18;16.50;99.90
20155;DHT22;10238;49.556;10.956;2022-08-14T05:57:51;16.50;99.90
20155;DHT22;10238;49.556;10.956;2022-08-14T06:00:27;16.60;99.90
20155;DHT22;10238;49.556;10.956;2022-08-14T06:03:07;16.70;99.90
20155;DHT22;10238;49.556;10.956;2022-08-14T06:05:37;16.80;99.90
20155;DHT22;10238;49.556;10.956;2022-08-14T06:08:15;17.00;99.90
20155;DHT22;10238;49.556;10.956;2022-08-14T06:11:06;17.10;99.90
20155;DHT22;10238;49.556;10.956;2022-08-14T06:13:38;17.20;99.90
20155;DHT22;10238;49.556;10.956;2022-08-14T06:16:14;17.40;99.90
20155;DHT22;10238;49.556;10.956;2022-08-14T06:18:47;17.50;99.90
20155;DHT22;10238;49.556;10.956;2022-08-14T06:21:20;17.60;99.90
20155;DHT22;10238;49.556;10.956;2022-08-14T06:23:51;17.80;99.90
20155;DHT22;10238;49.556;10.956;2022-08-14T06:26:20;17.90;99.90
20155;DHT22;10238;49.556;10.956;2022-08-14T06:28:56;18.10;99.90
20155;DHT22;10238;49.556;10.956;2022-08-14T06:31:26;18.20;99.90
20155;DHT22;10238;49.556;10.956;2022-08-14T06:33:55;18.40;99.90
20155;DHT22;10238;49.556;10.956;2022-08-14T06:36:44;18.50;99.90
20155;DHT22;10238;49.556;10.956;2022-08-14T06:39:15;18.70;99.90
20155;DHT22;10238;49.556;10.956;2022-08-14T06:42:03;18.90;99.90
20155;DHT22;10238;49.556;10.956;2022-08-14T06:44:33;19.00;99.90
20155;DHT22;10238;49.556;10.956;2022-08-14T06:47:03;19.10;99.90
20155;DHT22;10238;49.556;10.956;2022-08-14T06:49:32;19.30;99.90
20155;DHT22;10238;49.556;10.956;2022-08-14T06:52:14;19.40;99.90
20155;DHT22;10238;49.556;10.956;2022-08-14T06:54:47;19.60;99.90
20155;DHT22;10238;49.556;10.956;2022-08-14T06:57:18;19.70;99.90
20155;DHT22;10238;49.556;10.956;2022-08-14T06:59:48;19.80;99.90
20155;DHT22;10238;49.556;10.956;2022-08-14T07:02:18;20.00;99.90
20155;DHT22;10238;49.556;10.956;2022-08-14T07:05:10;20.10;99.90
20155;DHT22;10238;49.556;10.956;2022-08-14T07:07:57;20.30;99.90
20155;DHT22;10238;49.556;10.956;2022-08-14T07:10:28;20.50;99.90
20155;DHT22;10238;49.556;10.956;2022-08-14T07:12:58;20.70;99.90
20155;DHT22;10238;49.556;10.956;2022-08-14T07:15:31;20.90;99.90
20155;DHT22;10238;49.556;10.956;2022-08-14T07:18:07;21.20;99.90
20155;DHT22;10238;49.556;10.956;2022-08-14T07:20:37;21.40;99.90
20155;DHT22;10238;49.556;10.956;2022-08-14T07:23:09;21.50;99.90
20155;DHT22;10238;49.556;10.956;2022-08-14T07:25:52;21.80;99.90
20155;DHT22;10238;49.556;10.956;2022-08-14T07:28:26;22.00;99.90
20155;DHT22;10238;49.556;10.956;2022-08-14T07:30:58;22.30;99.90
20155;DHT22;10238;49.556;10.956;2022-08-14T07:33:34;22.50;99.90
20155;DHT22;10238;49.556;10.956;2022-08-14T07:36:11;22.80;99.90
20155;DHT22;10238;49.556;10.956;2022-08-14T07:38:57;23.00;99.90
20155;DHT22;10238;49.556;10.956;2022-08-14T07:41:28;23.30;99.90
20155;DHT22;10238;49.556;10.956;2022-08-14T07:44:02;23.50;99.90
20155;DHT22;10238;49.556;10.956;2022-08-14T07:46:52;23.70;99.90
20155;DHT22;10238;49.556;10.956;2022-08-14T07:49:21;24.00;99.90
20155;DHT22;10238;49.556;10.956;2022-08-14T07:51:51;24.30;99.90
20155;DHT22;10238;49.556;10.956;2022-08-14T07:54:22;24.50;99.90
20155;DHT22;10238;49.556;10.956;2022-08-14T07:56:59;24.90;99.90
20155;DHT22;10238;49.556;10.956;2022-08-14T07:59:38;25.10;99.90
20155;DHT22;10238;49.556;10.956;2022-08-14T08:02:14;25.30;99.90
20155;DHT22;10238;49.556;10.956;2022-08-14T08:04:50;25.50;99.90
20155;DHT22;10238;49.556;10.956;2022-08-14T08:07:28;25.80;99.90
20155;DHT22;10238;49.556;10.956;2022-08-14T08:09:59;26.10;99.90
20155;DHT22;10238;49.556;10.956;2022-08-14T08:13:16;26.50;99.90
20155;DHT22;10238;49.556;10.956;2022-08-14T08:15:52;26.80;99.90
20155;DHT22;10238;49.556;10.956;2022-08-14T08:18:25;26.90;99.90
20155;DHT22;10238;49.556;10.956;2022-08-14T08:20:57;27.10;99.90
20155;DHT22;10238;49.556;10.956;2022-08-14T08:23:28;27.50;99.90
20155;DHT22;10238;49.556;10.956;2022-08-14T08:26:10;27.70;99.60
20155;DHT22;10238;49.556;10.956;2022-08-14T08:28:42;27.90;99.80
20155;DHT22;10238;49.556;10.956;2022-08-14T08:31:10;28.20;99.70
20155;DHT22;10238;49.556;10.956;2022-08-14T08:33:40;28.40;99.30
20155;DHT22;10238;49.556;10.956;2022-08-14T08:36:15;28.50;97.30
20155;DHT22;10238;49.556;10.956;2022-08-14T08:38:47;28.70;98.00
20155;DHT22;10238;49.556;10.956;2022-08-14T08:41:42;28.90;97.00
20155;DHT22;10238;49.556;10.956;2022-08-14T08:44:18;29.10;95.70
20155;DHT22;10238;49.556;10.956;2022-08-14T08:47:01;29.50;96.10
20155;DHT22;10238;49.556;10.956;2022-08-14T08:49:38;29.90;95.40
20155;DHT22;10238;49.556;10.956;2022-08-14T08:52:26;30.20;94.60
20155;DHT22;10238;49.556;10.956;2022-08-14T08:54:58;30.40;94.20
20155;DHT22;10238;49.556;10.956;2022-08-14T08:57:33;30.70;92.00
20155;DHT22;10238;49.556;10.956;2022-08-14T09:00:13;30.90;91.10
20155;DHT22;10238;49.556;10.956;2022-08-14T09:02:53;31.20;91.60
20155;DHT22;10238;49.556;10.956;2022-08-14T09:05:25;31.60;89.50
20155;DHT22;10238;49.556;10.956;2022-08-14T09:08:08;31.60;90.40
20155;DHT22;10238;49.556;10.956;2022-08-14T09:10:58;31.70;88.50
20155;DHT22;10238;49.556;10.956;2022-08-14T09:13:28;31.90;89.00
20155;DHT22;10238;49.556;10.956;2022-08-14T09:18:45;32.50;84.10
20155;DHT22;10238;49.556;10.956;2022-08-14T09:21:15;32.50;84.50
20155;DHT22;10238;49.556;10.956;2022-08-14T09:23:45;32.40;85.30
20155;DHT22;10238;49.556;10.956;2022-08-14T09:26:35;32.60;85.10
20155;DHT22;10238;49.556;10.956;2022-08-14T09:29:06;33.00;85.10
20155;DHT22;10238;49.556;10.956;2022-08-14T09:31:43;33.30;83.70
20155;DHT22;10238;49.556;10.956;2022-08-14T09:34:27;33.30;80.80
20155;DHT22;10238;49.556;10.956;2022-08-14T09:37:43;33.30;82.10
20155;DHT22;10238;49.556;10.956;2022-08-14T09:40:37;33.40;82.40
20155;DHT22;10238;49.556;10.956;2022-08-14T09:43:23;33.30;77.00
20155;DHT22;10238;49.556;10.956;2022-08-14T09:45:58;33.00;81.50
20155;DHT22;10238;49.556;10.956;2022-08-14T09:48:32;33.00;81.40
20155;DHT22;10238;49.556;10.956;2022-08-14T09:51:06;33.10;81.90
20155;DHT22;10238;49.556;10.956;2022-08-14T09:53:41;33.00;82.60
20155;DHT22;10238;49.556;10.956;2022-08-14T09:56:43;33.00;80.00
20155;DHT22;10238;49.556;10.956;2022-08-14T09:59:23;32.90;83.30
20155;DHT22;10238;49.556;10.956;2022-08-14T10:01:58;33.20;84.10
20155;DHT22;10238;49.556;10.956;2022-08-14T10:04:29;33.60;80.30
20155;DHT22;10238;49.556;10.956;2022-08-14T10:07:05;34.10;79.90
20155;DHT22;10238;49.556;10.956;2022-08-14T10:09:48;34.20;79.40
20155;DHT22;10238;49.556;10.956;2022-08-14T10:12:45;34.50;80.40
20155;DHT22;10238;49.556;10.956;2022-08-14T10:18:02;34.30;74.20
20155;DHT22;10238;49.556;10.956;2022-08-14T10:20:56;34.20;75.80
20155;DHT22;10238;49.556;10.956;2022-08-14T10:23:41;34.50;79.00
20155;DHT22;10238;49.556;10.956;2022-08-14T11:21:56;35.30;70.90
20155;DHT22;10238;49.556;10.956;2022-08-14T11:24:30;35.20;71.40
20155;DHT22;10238;49.556;10.956;2022-08-14T11:30:04;35.00;68.10
20155;DHT22;10238;49.556;10.956;2022-08-14T11:32:57;34.90;70.00
20155;DHT22;10238;49.556;10.956;2022-08-14T11:35:26;34.50;70.20
20155;DHT22;10238;49.556;10.956;2022-08-14T11:38:14;34.80;71.70
20155;DHT22;10238;49.556;10.956;2022-08-14T11:40:48;35.00;68.90
20155;DHT22;10238;49.556;10.956;2022-08-14T11:43:18;34.90;70.90
20155;DHT22;10238;49.556;10.956;2022-08-14T11:45:55;34.80;70.20
20155;DHT22;10238;49.556;10.956;2022-08-14T11:48:44;34.90;72.10
20155;DHT22;10238;49.556;10.956;2022-08-14T11:51:31;34.90;70.90
20155;DHT22;10238;49.556;10.956;2022-08-14T11:54:17;35.00;69.20
20155;DHT22;10238;49.556;10.956;2022-08-14T11:57:03;35.20;70.20
20155;DHT22;10238;49.556;10.956;2022-08-14T11:59:32;35.50;69.00
20155;DHT22;10238;49.556;10.956;2022-08-14T12:02:09;35.80;67.40
20155;DHT22;10238;49.556;10.956;2022-08-14T12:04:59;36.00;72.00
20155;DHT22;10238;49.556;10.956;2022-08-14T14:11:15;38.00;57.40
20155;DHT22;10238;49.556;10.956;2022-08-14T14:13:51;37.90;57.80
20155;DHT22;10238;49.556;10.956;2022-08-14T14:16:22;37.90;59.80
20155;DHT22;10238;49.556;10.956;2022-08-14T14:18:59;37.90;58.30
20155;DHT22;10238;49.556;10.956;2022-08-14T14:21:37;37.90;59.80
20155;DHT22;10238;49.556;10.956;2022-08-14T14:24:07;38.20;60.00
20155;DHT22;10238;49.556;10.956;2022-08-14T14:34:29;37.70;58.50
20155;DHT22;10238;49.556;10.956;2022-08-14T14:37:02;37.60;58.60
20155;DHT22;10238;49.556;10.956;2022-08-14T14:39:33;37.50;59.60
20155;DHT22;10238;49.556;10.956;2022-08-14T14:42:25;37.60;60.90
20155;DHT22;10238;49.556;10.956;2022-08-14T14:45:04;37.40;57.90
20155;DHT22;10238;49.556;10.956;2022-08-14T14:47:43;37.00;60.40
20155;DHT22;10238;49.556;10.956;2022-08-14T14:50:17;36.40;58.70
20155;DHT22;10238;49.556;10.956;2022-08-14T14:52:51;36.20;61.00
20155;DHT22;10238;49.556;10.956;2022-08-14T14:55:40;36.00;61.10
20155;DHT22;10238;49.556;10.956;2022-08-14T14:58:31;36.20;60.60
20155;DHT22;10238;49.556;10.956;2022-08-14T15:01:02;36.60;63.00
20155;DHT22;10238;49.556;10.956;2022-08-14T15:03:37;36.70;61.60
20155;DHT22;10238;49.556;10.956;2022-08-14T15:06:11;36.80;62.40
20155;DHT22;10238;49.556;10.956;2022-08-14T15:08:44;36.90;62.00
20155;DHT22;10238;49.556;10.956;2022-08-14T15:11:24;37.20;62.30
20155;DHT22;10238;49.556;10.956;2022-08-14T15:13:57;37.50;62.90
20155;DHT22;10238;49.556;10.956;2022-08-14T16:32:52;37.50;58.60
20155;DHT22;10238;49.556;10.956;2022-08-14T16:35:25;37.40;58.40
20155;DHT22;10238;49.556;10.956;2022-08-14T16:38:15;37.10;59.40
20155;DHT22;10238;49.556;10.956;2022-08-14T16:41:07;36.90;59.10
20155;DHT22;10238;49.556;10.956;2022-08-14T16:43:52;36.60;60.00
20155;DHT22;10238;49.556;10.956;2022-08-14T16:46:28;36.30;59.70
20155;DHT22;10238;49.556;10.956;2022-08-14T16:48:59;36.00;61.10
20155;DHT22;10238;49.556;10.956;2022-08-14T16:51:30;35.90;61.60
20155;DHT22;10238;49.556;10.956;2022-08-14T16:54:04;35.80;59.90
20155;DHT22;10238;49.556;10.956;2022-08-14T16:57:11;35.60;60.70
20155;DHT22;10238;49.556;10.956;2022-08-14T16:59:43;35.40;62.10
20155;DHT22;10238;49.556;10.956;2022-08-14T17:02:33;35.40;61.60
20155;DHT22;10238;49.556;10.956;2022-08-14T17:05:17;35.20;62.60
20155;DHT22;10238;49.556;10.956;2022-08-14T17:08:07;35.10;62.50
20155;DHT22;10238;49.556;10.956;2022-08-14T17:11:03;35.10;63.40
20155;DHT22;10238;49.556;10.956;2022-08-14T17:13:40;34.90;63.00
20155;DHT22;10238;49.556;10.956;2022-08-14T17:16:30;34.80;62.80
20155;DHT22;10238;49.556;10.956;2022-08-14T17:19:04;34.50;62.50
20155;DHT22;10238;49.556;10.956;2022-08-14T17:21:41;34.30;62.80
20155;DHT22;10238;49.556;10.956;2022-08-14T17:24:14;34.10;62.90
20155;DHT22;10238;49.556;10.956;2022-08-14T17:27:05;33.90;63.10
20155;DHT22;10238;49.556;10.956;2022-08-14T17:29:39;33.70;64.40
20155;DHT22;10238;49.556;10.956;2022-08-14T17:32:28;33.50;64.40
20155;DHT22;10238;49.556;10.956;2022-08-14T17:35:26;33.30;64.10
20155;DHT22;10238;49.556;10.956;2022-08-14T17:38:15;33.00;65.00
20155;DHT22;10238;49.556;10.956;2022-08-14T17:41:18;32.80;65.40
20155;DHT22;10238;49.556;10.956;2022-08-14T17:44:17;32.50;66.00
20155;DHT22;10238;49.556;10.956;2022-08-14T17:47:10;32.20;65.90
20155;DHT22;10238;49.556;10.956;2022-08-14T17:49:48;32.00;66.20
20155;DHT22;10238;49.556;10.956;2022-08-14T17:52:21;31.80;66.70
20155;DHT22;10238;49.556;10.956;2022-08-14T17:55:03;31.60;67.10
20155;DHT22;10238;49.556;10.956;2022-08-14T17:57:34;31.40;67.80
20155;DHT22;10238;49.556;10.956;2022-08-14T18:00:10;31.20;68.00
20155;DHT22;10238;49.556;10.956;2022-08-14T18:02:43;31.00;67.80
20155;DHT22;10238;49.556;10.956;2022-08-14T18:05:18;30.80;68.30
20155;DHT22;10238;49.556;10.956;2022-08-14T18:08:10;30.70;68.60
20155;DHT22;10238;49.556;10.956;2022-08-14T18:11:00;30.40;69.30
20155;DHT22;10238;49.556;10.956;2022-08-14T18:13:31;30.20;69.30
20155;DHT22;10238;49.556;10.956;2022-08-14T18:16:18;30.10;69.70
20155;DHT22;10238;49.556;10.956;2022-08-14T18:18:51;29.90;70.30
20155;DHT22;10238;49.556;10.956;2022-08-14T18:21:20;29.70;71.20
20155;DHT22;10238;49.556;10.956;2022-08-14T18:24:09;29.60;71.10
20155;DHT22;10238;49.556;10.956;2022-08-14T18:26:59;29.40;71.40
20155;DHT22;10238;49.556;10.956;2022-08-14T18:29:40;29.20;71.90
20155;DHT22;10238;49.556;10.956;2022-08-14T18:32:41;29.10;72.40
20155;DHT22;10238;49.556;10.956;2022-08-14T18:35:40;28.80;72.50
20155;DHT22;10238;49.556;10.956;2022-08-14T18:38:25;28.70;73.50
20155;DHT22;10238;49.556;10.956;2022-08-14T18:41:27;28.50;73.60
20155;DHT22;10238;49.556;10.956;2022-08-14T18:44:04;28.30;74.10
20155;DHT22;10238;49.556;10.956;2022-08-14T18:50:04;28.00;75.40
20155;DHT22;10238;49.556;10.956;2022-08-14T18:53:04;27.80;75.70
20155;DHT22;10238;49.556;10.956;2022-08-14T18:55:48;27.60;76.10
20155;DHT22;10238;49.556;10.956;2022-08-14T18:58:23;27.50;76.30
20155;DHT22;10238;49.556;10.956;2022-08-14T19:00:59;27.40;76.50
20155;DHT22;10238;49.556;10.956;2022-08-14T19:03:53;27.20;77.10
20155;DHT22;10238;49.556;10.956;2022-08-14T19:06:43;27.00;77.00
20155;DHT22;10238;49.556;10.956;2022-08-14T19:09:53;26.90;77.60
20155;DHT22;10238;49.556;10.956;2022-08-14T19:12:54;26.70;77.70
20155;DHT22;10238;49.556;10.956;2022-08-14T19:15:26;26.60;78.20
20155;DHT22;10238;49.556;10.956;2022-08-14T19:17:57;26.50;78.30
20155;DHT22;10238;49.556;10.956;2022-08-14T19:20:47;26.30;78.50
20155;DHT22;10238;49.556;10.956;2022-08-14T19:23:22;26.20;78.90
20155;DHT22;10238;49.556;10.956;2022-08-14T19:26:24;26.10;80.00
20155;DHT22;10238;49.556;10.956;2022-08-14T19:29:25;26.00;79.80
20155;DHT22;10238;49.556;10.956;2022-08-14T19:32:35;25.80;80.10
20155;DHT22;10238;49.556;10.956;2022-08-14T19:38:45;25.60;81.20
20155;DHT22;10238;49.556;10.956;2022-08-14T19:41:22;25.50;81.30
20155;DHT22;10238;49.556;10.956;2022-08-14T19:44:08;25.30;81.50
20155;DHT22;10238;49.556;10.956;2022-08-14T19:46:48;25.30;81.50
20155;DHT22;10238;49.556;10.956;2022-08-14T19:49:31;25.20;82.10
20155;DHT22;10238;49.556;10.956;2022-08-14T19:52:23;25.10;82.50
20155;DHT22;10238;49.556;10.956;2022-08-14T19:54:58;25.00;83.00
20155;DHT22;10238;49.556;10.956;2022-08-14T19:57:30;24.90;82.60
20155;DHT22;10238;49.556;10.956;2022-08-14T20:00:02;24.80;82.80
20155;DHT22;10238;49.556;10.956;2022-08-14T20:03:00;24.70;83.50
20155;DHT22;10238;49.556;10.956;2022-08-14T20:05:39;24.60;84.20
20155;DHT22;10238;49.556;10.956;2022-08-14T20:08:12;24.50;84.60
20155;DHT22;10238;49.556;10.956;2022-08-14T20:11:03;24.40;85.30
20155;DHT22;10238;49.556;10.956;2022-08-14T20:13:58;24.30;85.70
20155;DHT22;10238;49.556;10.956;2022-08-14T20:16:39;24.20;85.80
20155;DHT22;10238;49.556;10.956;2022-08-14T20:19:15;24.10;86.40
20155;DHT22;10238;49.556;10.956;2022-08-14T20:21:51;24.00;87.60
20155;DHT22;10238;49.556;10.956;2022-08-14T20:24:43;23.90;88.10
20155;DHT22;10238;49.556;10.956;2022-08-14T20:27:19;23.80;87.90
20155;DHT22;10238;49.556;10.956;2022-08-14T20:30:16;23.80;87.50
20155;DHT22;10238;49.556;10.956;2022-08-14T20:33:03;23.70;88.40
20155;DHT22;10238;49.556;10.956;2022-08-14T20:35:43;23.60;89.60
20155;DHT22;10238;49.556;10.956;2022-08-14T20:38:17;23.50;89.80
20155;DHT22;10238;49.556;10.956;2022-08-14T20:41:21;23.40;90.30
20155;DHT22;10238;49.556;10.956;2022-08-14T20:43:56;23.30;90.20
20155;DHT22;10238;49.556;10.956;2022-08-14T20:46:49;23.20;90.50
20155;DHT22;10238;49.556;10.956;2022-08-14T20:49:27;23.20;90.00
20155;DHT22;10238;49.556;10.956;2022-08-14T20:52:07;23.10;91.30
20155;DHT22;10238;49.556;10.956;2022-08-14T20:54:46;23.00;91.40
20155;DHT22;10238;49.556;10.956;2022-08-14T20:57:18;22.90;90.80
20155;DHT22;10238;49.556;10.956;2022-08-14T20:59:48;22.90;91.40
20155;DHT22;10238;49.556;10.956;2022-08-14T21:02:32;22.80;91.30
20155;DHT22;10238;49.556;10.956;2022-08-14T21:05:18;22.70;91.90
20155;DHT22;10238;49.556;10.956;2022-08-14T21:08:01;22.70;92.20
20155;DHT22;10238;49.556;10.956;2022-08-14T21:10:53;22.60;92.00